createdAt,value
2017-09-13T00:00:00.597Z,2.00
2017-09-13T00:02:28.923Z,2.00
2017-09-13T00:04:58.043Z,2.03
2017-09-13T00:07:26.359Z,1.77
2017-09-13T00:09:54.686Z,1.97
2017-09-13T00:12:23.032Z,2.20
2017-09-13T00:14:51.378Z,1.90
2017-09-13T00:17:19.702Z,2.00
2017-09-13T00:19:48.041Z,1.60
2017-09-13T00:22:16.357Z,1.77
2017-09-13T00:24:44.686Z,2.17
2017-09-13T00:27:13.754Z,1.70
2017-09-13T00:29:42.081Z,1.97
2017-09-13T00:32:10.395Z,1.60
2017-09-13T00:34:38.725Z,1.60
2017-09-13T00:37:07.089Z,1.90
2017-09-13T00:39:36.183Z,1.80
2017-09-13T00:42:05.272Z,2.13
2017-09-13T00:44:33.613Z,1.57
2017-09-13T00:47:01.927Z,1.80
2017-09-13T00:49:30.249Z,1.63
2017-09-13T00:51:58.567Z,1.73
2017-09-13T00:54:27.694Z,1.53
2017-09-13T00:56:56.027Z,1.47
2017-09-13T00:59:24.338Z,1.33
2017-09-13T01:01:52.639Z,1.77
2017-09-13T01:04:21.017Z,1.27
2017-09-13T01:06:49.331Z,1.90
2017-09-13T01:09:17.664Z,1.47
2017-09-13T01:11:46.737Z,2.33
2017-09-13T01:14:15.057Z,1.10
2017-09-13T01:16:43.385Z,1.73
2017-09-13T01:19:11.714Z,1.57
2017-09-13T01:21:40.047Z,1.47
2017-09-13T01:24:08.389Z,1.50
2017-09-13T01:26:36.713Z,1.70
2017-09-13T01:29:13.527Z,1.50
2017-09-13T01:31:41.826Z,1.77
2017-09-13T01:34:10.162Z,1.73
2017-09-13T01:36:38.465Z,1.67
2017-09-13T01:39:06.793Z,1.40
2017-09-13T01:41:35.097Z,1.60
2017-09-13T01:44:04.197Z,1.70
2017-09-13T01:46:32.534Z,1.97
2017-09-13T01:49:00.881Z,1.90
2017-09-13T01:51:29.194Z,2.23
2017-09-13T01:53:57.526Z,1.87
2017-09-13T01:56:25.909Z,1.80
2017-09-13T01:58:54.240Z,1.47
2017-09-13T02:01:22.578Z,1.40
2017-09-13T02:03:50.890Z,2.10
2017-09-13T02:06:19.213Z,2.47
2017-09-13T02:08:47.521Z,1.60
2017-09-13T02:11:15.855Z,2.00
2017-09-13T02:13:44.202Z,2.13
2017-09-13T02:16:12.529Z,1.43
2017-09-13T02:18:40.856Z,1.70
2017-09-13T02:21:09.233Z,1.70
2017-09-13T02:23:37.541Z,2.03
2017-09-13T02:26:05.872Z,1.60
2017-09-13T02:28:34.256Z,2.00
2017-09-13T02:31:02.588Z,2.90
2017-09-13T02:33:31.665Z,1.87
2017-09-13T02:36:00.003Z,1.67
2017-09-13T02:38:29.091Z,1.70
2017-09-13T02:40:57.430Z,1.50
2017-09-13T02:43:25.734Z,1.70
2017-09-13T02:45:54.830Z,1.73
2017-09-13T02:48:23.898Z,1.80
2017-09-13T02:50:52.234Z,1.60
2017-09-13T02:53:20.598Z,1.53
2017-09-13T02:55:48.944Z,1.97
2017-09-13T02:58:17.246Z,1.53
2017-09-13T03:00:45.575Z,1.93
2017-09-13T03:03:13.895Z,2.07
2017-09-13T03:05:46.464Z,3.13
2017-09-13T03:08:15.530Z,1.80
2017-09-13T03:10:43.858Z,1.90
2017-09-13T03:13:12.157Z,1.77
2017-09-13T03:15:42.420Z,1.93
2017-09-13T03:18:10.720Z,1.70
2017-09-13T03:20:39.813Z,1.60
2017-09-13T03:23:08.873Z,1.67
2017-09-13T03:25:37.210Z,2.33
2017-09-13T03:28:05.526Z,3.03
2017-09-13T03:30:34.861Z,2.07
2017-09-13T03:33:03.162Z,1.47
2017-09-13T03:35:31.510Z,1.87
2017-09-13T03:37:59.814Z,1.50
2017-09-13T03:40:28.148Z,2.27
2017-09-13T03:42:56.471Z,2.13
2017-09-13T03:45:24.808Z,1.70
2017-09-13T03:47:53.106Z,1.67
2017-09-13T03:50:23.434Z,1.63
2017-09-13T03:52:51.743Z,1.60
2017-09-13T03:55:20.067Z,1.63
2017-09-13T03:57:48.372Z,1.40
2017-09-13T04:00:17.559Z,2.07
2017-09-13T04:02:46.048Z,1.33
2017-09-13T04:05:15.413Z,2.10
2017-09-13T04:07:44.537Z,1.77
2017-09-13T04:10:12.865Z,1.20
2017-09-13T04:12:41.174Z,2.00
2017-09-13T04:15:09.501Z,1.53
2017-09-13T04:17:38.577Z,2.10
2017-09-13T04:20:06.899Z,1.40
2017-09-13T04:22:35.220Z,2.20
2017-09-13T04:25:03.566Z,2.07
2017-09-13T04:27:31.895Z,2.50
2017-09-13T04:30:00.225Z,1.60
2017-09-13T04:32:29.290Z,1.40
2017-09-13T04:34:58.401Z,1.77
2017-09-13T04:37:26.720Z,1.50
2017-09-13T04:39:55.060Z,1.90
2017-09-13T04:42:23.378Z,2.00
2017-09-13T04:44:51.707Z,1.53
2017-09-13T04:47:20.029Z,1.93
2017-09-13T04:49:48.350Z,2.00
2017-09-13T04:52:17.452Z,1.90
2017-09-13T04:54:46.532Z,2.03
2017-09-13T04:57:14.870Z,1.70
2017-09-13T04:59:43.181Z,1.57
2017-09-13T05:02:11.577Z,1.40
2017-09-13T05:04:40.646Z,1.97
2017-09-13T05:07:08.978Z,1.20
2017-09-13T05:09:37.301Z,1.70
2017-09-13T05:12:05.636Z,1.90
2017-09-13T05:14:33.951Z,1.83
2017-09-13T05:17:02.287Z,2.27
2017-09-13T05:19:30.603Z,1.90
2017-09-13T05:21:58.919Z,1.93
2017-09-13T05:24:28.023Z,1.77
2017-09-13T05:26:57.103Z,1.90
2017-09-13T05:29:25.437Z,1.63
2017-09-13T05:31:53.756Z,2.10
2017-09-13T05:34:22.146Z,2.10
2017-09-13T05:36:51.291Z,1.90
2017-09-13T05:39:19.612Z,1.63
2017-09-13T05:41:47.929Z,1.60
2017-09-13T05:44:16.262Z,1.47
2017-09-13T05:46:44.571Z,1.50
2017-09-13T05:49:12.909Z,1.40
2017-09-13T05:51:41.216Z,1.30
2017-09-13T05:54:09.525Z,1.60
2017-09-13T05:56:37.854Z,1.33
2017-09-13T05:59:06.157Z,1.50
2017-09-13T06:01:35.249Z,1.20
2017-09-13T06:04:04.326Z,2.43
2017-09-13T06:06:33.625Z,1.90
2017-09-13T06:09:01.934Z,1.60
2017-09-13T06:11:30.270Z,1.60
2017-09-13T06:13:58.574Z,1.87
2017-09-13T06:16:26.919Z,1.63
2017-09-13T06:18:55.230Z,1.53
2017-09-13T06:21:24.329Z,2.03
2017-09-13T06:23:53.418Z,1.47
2017-09-13T06:26:21.759Z,1.50
2017-09-13T06:28:50.066Z,1.57
2017-09-13T06:31:18.407Z,1.30
2017-09-13T06:33:46.719Z,1.60
2017-09-13T06:36:15.057Z,1.37
2017-09-13T06:38:43.385Z,1.27
2017-09-13T06:41:11.727Z,1.73
2017-09-13T06:43:40.051Z,1.10
2017-09-13T06:46:08.382Z,1.40
2017-09-13T06:48:36.708Z,2.03
2017-09-13T06:51:05.786Z,1.93
2017-09-13T06:53:34.115Z,1.73
2017-09-13T06:56:02.436Z,1.57
2017-09-13T06:58:30.764Z,1.90
2017-09-13T07:00:59.084Z,1.57
2017-09-13T07:03:27.425Z,1.93
2017-09-13T07:05:55.728Z,1.10
2017-09-13T07:08:24.059Z,1.90
2017-09-13T07:10:53.136Z,1.47
2017-09-13T07:13:25.029Z,1.87
2017-09-13T07:15:53.346Z,1.30
2017-09-13T07:18:21.674Z,1.73
2017-09-13T07:20:50.751Z,1.70
2017-09-13T07:23:19.064Z,1.53
2017-09-13T07:25:47.403Z,1.40
2017-09-13T07:28:15.702Z,1.03
2017-09-13T07:30:44.031Z,2.10
2017-09-13T07:33:12.330Z,1.40
2017-09-13T07:35:40.658Z,1.10
2017-09-13T07:38:08.966Z,2.10
2017-09-13T07:40:37.290Z,1.40
2017-09-13T07:43:06.377Z,2.23
2017-09-13T07:45:34.704Z,1.60
2017-09-13T07:48:03.015Z,1.37
2017-09-13T07:50:31.371Z,1.27
2017-09-13T07:52:59.676Z,1.40
2017-09-13T07:55:27.988Z,1.20
2017-09-13T07:57:56.318Z,1.20
2017-09-13T08:00:24.630Z,1.20
2017-09-13T08:02:52.955Z,1.30
2017-09-13T08:05:21.262Z,1.20
2017-09-13T08:07:49.594Z,1.73
2017-09-13T08:10:17.915Z,1.60
2017-09-13T08:12:46.251Z,1.73
2017-09-13T08:15:14.558Z,0.83
2017-09-13T08:17:42.891Z,1.00
2017-09-13T08:20:11.963Z,0.70
2017-09-13T08:22:40.292Z,0.93
2017-09-13T08:25:08.617Z,1.33
2017-09-13T08:27:36.950Z,1.10
2017-09-13T08:30:05.263Z,0.90
2017-09-13T08:32:33.572Z,1.07
2017-09-13T08:35:02.683Z,0.80
2017-09-13T08:37:30.994Z,1.03
2017-09-13T08:39:59.333Z,0.80
2017-09-13T08:42:28.400Z,0.80
2017-09-13T08:44:56.998Z,0.80
2017-09-13T08:47:26.092Z,0.80
2017-09-13T08:49:54.432Z,1.03
2017-09-13T08:52:22.744Z,0.80
2017-09-13T08:54:51.074Z,1.03
2017-09-13T08:57:19.387Z,0.83
2017-09-13T08:59:47.727Z,1.00
2017-09-13T09:02:16.041Z,0.83
2017-09-13T09:04:44.358Z,1.10
2017-09-13T09:07:13.451Z,1.73
2017-09-13T09:09:42.534Z,0.80
2017-09-13T09:12:10.867Z,0.80
2017-09-13T09:14:39.177Z,1.50
2017-09-13T09:17:07.519Z,0.80
2017-09-13T09:19:35.835Z,1.00
2017-09-13T09:22:04.164Z,0.80
2017-09-13T09:24:32.469Z,0.83
2017-09-13T09:27:00.797Z,0.70
2017-09-13T09:29:29.102Z,0.90
2017-09-13T09:31:57.450Z,1.10
2017-09-13T09:34:26.537Z,0.77
2017-09-13T09:36:55.645Z,1.00
2017-09-13T09:39:23.988Z,0.60
2017-09-13T09:41:52.281Z,0.67
2017-09-13T09:44:20.605Z,0.73
2017-09-13T09:46:48.908Z,0.80
2017-09-13T09:49:17.246Z,0.90
2017-09-13T09:51:46.332Z,1.27
2017-09-13T09:54:14.662Z,0.90
2017-09-13T09:56:42.976Z,1.10
2017-09-13T09:59:11.312Z,0.73
2017-09-13T10:01:39.622Z,1.00
2017-09-13T10:04:07.950Z,0.80
2017-09-13T10:06:36.267Z,0.77
2017-09-13T10:09:04.566Z,0.70
2017-09-13T10:11:32.899Z,0.60
2017-09-13T10:14:01.211Z,0.70
2017-09-13T10:16:29.562Z,0.70
2017-09-13T10:18:57.875Z,0.67
2017-09-13T10:21:26.207Z,0.67
2017-09-13T10:23:54.515Z,0.90
2017-09-13T10:26:22.840Z,0.83
2017-09-13T10:28:51.914Z,0.90
2017-09-13T10:31:20.243Z,0.87
2017-09-13T10:33:49.427Z,0.77
2017-09-13T10:36:17.753Z,0.67
2017-09-13T10:38:46.061Z,0.70
2017-09-13T10:41:15.181Z,0.63
2017-09-13T10:43:43.499Z,0.80
2017-09-13T10:46:11.814Z,0.70
2017-09-13T10:48:40.922Z,0.63
2017-09-13T10:51:09.997Z,0.60
2017-09-13T10:53:38.379Z,0.60
2017-09-13T10:56:06.681Z,0.60
2017-09-13T10:58:35.773Z,1.10
2017-09-13T11:01:04.837Z,0.80
2017-09-13T11:03:33.187Z,0.60
2017-09-13T11:06:01.495Z,0.90
2017-09-13T11:08:29.839Z,1.20
2017-09-13T11:10:58.146Z,0.73
2017-09-13T11:13:26.474Z,0.80
2017-09-13T11:15:58.350Z,0.70
2017-09-13T11:18:26.715Z,0.90
2017-09-13T11:20:55.018Z,0.80
2017-09-13T11:23:23.324Z,0.80
2017-09-13T11:25:51.667Z,0.70
2017-09-13T11:28:19.982Z,0.83
2017-09-13T11:30:48.313Z,0.80
2017-09-13T11:33:16.617Z,1.10
2017-09-13T11:35:44.950Z,0.87
2017-09-13T11:38:14.072Z,0.93
2017-09-13T11:40:42.402Z,0.67
2017-09-13T11:43:10.713Z,1.43
2017-09-13T11:45:39.831Z,0.90
2017-09-13T11:48:08.155Z,1.30
2017-09-13T11:50:36.461Z,0.87
2017-09-13T11:53:04.788Z,1.00
2017-09-13T11:55:33.125Z,0.80
2017-09-13T11:58:01.465Z,0.80
2017-09-13T12:00:29.783Z,0.73
2017-09-13T12:02:58.125Z,1.20
2017-09-13T12:05:26.451Z,0.97
2017-09-13T12:07:54.819Z,1.00
2017-09-13T12:10:23.150Z,0.90
2017-09-13T12:12:51.478Z,1.47
2017-09-13T12:15:19.806Z,1.00
2017-09-13T12:17:48.131Z,1.10
2017-09-13T12:20:17.198Z,1.40
2017-09-13T12:22:45.514Z,0.90
2017-09-13T12:25:14.775Z,1.10
2017-09-13T12:27:43.092Z,1.97
2017-09-13T12:30:11.425Z,1.80
2017-09-13T12:32:39.737Z,1.03
2017-09-13T12:35:08.832Z,2.20
2017-09-13T12:37:37.154Z,1.83
2017-09-13T12:40:05.482Z,1.50
2017-09-13T12:42:34.562Z,1.13
2017-09-13T12:45:03.795Z,1.50
2017-09-13T12:47:32.106Z,1.00
2017-09-13T12:50:00.448Z,1.00
2017-09-13T12:52:29.523Z,1.73
2017-09-13T12:54:58.644Z,1.37
2017-09-13T12:57:26.968Z,1.00
2017-09-13T12:59:55.279Z,1.00
2017-09-13T13:02:24.382Z,1.17
2017-09-13T13:04:53.459Z,1.30
2017-09-13T13:07:21.789Z,1.10
2017-09-13T13:09:50.111Z,1.40
2017-09-13T13:12:18.446Z,1.30
2017-09-13T13:14:46.767Z,0.90
2017-09-13T13:17:15.138Z,1.00
2017-09-13T13:19:43.453Z,1.10
2017-09-13T13:22:12.564Z,1.17
2017-09-13T13:24:40.884Z,1.60
2017-09-13T13:27:09.220Z,1.57
2017-09-13T13:29:37.537Z,1.90
2017-09-13T13:32:05.886Z,1.13
2017-09-13T13:34:34.222Z,1.63
2017-09-13T13:37:02.542Z,1.30
2017-09-13T13:39:30.896Z,0.93
2017-09-13T13:41:59.990Z,1.00
2017-09-13T13:44:29.088Z,1.20
2017-09-13T13:46:58.167Z,1.30
2017-09-13T13:49:26.515Z,1.33
2017-09-13T13:51:54.839Z,1.10
2017-09-13T13:54:23.958Z,0.90
2017-09-13T13:56:52.262Z,1.40
2017-09-13T13:59:20.601Z,1.33
2017-09-13T14:01:48.917Z,1.30
2017-09-13T14:04:17.254Z,1.07
2017-09-13T14:06:46.339Z,1.43
2017-09-13T14:09:14.684Z,0.90
2017-09-13T14:11:43.006Z,1.00
2017-09-13T14:14:12.083Z,1.13
2017-09-13T14:16:40.411Z,0.70
2017-09-13T14:19:08.735Z,0.90
2017-09-13T14:21:37.088Z,0.80
2017-09-13T14:24:05.394Z,1.00
2017-09-13T14:26:33.730Z,0.73
2017-09-13T14:29:02.074Z,0.70
2017-09-13T14:31:31.182Z,0.87
2017-09-13T14:34:00.255Z,0.80
2017-09-13T14:36:28.584Z,0.80
2017-09-13T14:38:56.905Z,0.90
2017-09-13T14:41:25.270Z,0.80
2017-09-13T14:43:53.582Z,0.70
2017-09-13T14:46:22.678Z,0.80
2017-09-13T14:48:51.782Z,0.90
2017-09-13T14:51:20.103Z,0.80
2017-09-13T14:53:48.440Z,0.90
2017-09-13T14:56:16.793Z,0.77
2017-09-13T14:58:45.134Z,0.87
2017-09-13T15:01:13.448Z,0.77
2017-09-13T15:03:41.787Z,1.00
2017-09-13T15:06:10.103Z,1.03
2017-09-13T15:08:38.472Z,0.70
2017-09-13T15:11:06.798Z,1.20
2017-09-13T15:13:35.131Z,1.10
2017-09-13T15:16:03.438Z,1.20
2017-09-13T15:18:32.563Z,0.83
2017-09-13T15:21:00.878Z,1.17
2017-09-13T15:23:29.206Z,1.03
2017-09-13T15:25:58.295Z,1.67
2017-09-13T15:28:27.426Z,2.47
2017-09-13T15:30:55.767Z,1.10
2017-09-13T15:33:24.853Z,1.17
2017-09-13T15:35:53.959Z,0.83
2017-09-13T15:38:23.043Z,1.10
2017-09-13T15:40:51.384Z,1.10
2017-09-13T15:43:19.695Z,0.90
2017-09-13T15:45:48.025Z,0.80
2017-09-13T15:48:16.342Z,1.10
2017-09-13T15:50:44.698Z,1.00
2017-09-13T15:53:13.013Z,1.03
2017-09-13T15:55:41.347Z,1.10
2017-09-13T15:58:09.664Z,0.87
2017-09-13T16:00:38.018Z,0.93
2017-09-13T16:03:07.140Z,1.17
2017-09-13T16:05:35.479Z,1.10
2017-09-13T16:08:03.796Z,0.90
2017-09-13T16:10:32.106Z,1.17
2017-09-13T16:13:01.204Z,1.00
2017-09-13T16:15:29.529Z,1.00
2017-09-13T16:17:57.867Z,0.90
2017-09-13T16:20:26.188Z,1.10
2017-09-13T16:22:54.519Z,0.90
2017-09-13T16:25:22.847Z,1.23
2017-09-13T16:27:51.181Z,1.00
2017-09-13T16:30:19.496Z,0.80
2017-09-13T16:32:47.858Z,0.70
2017-09-13T16:35:16.170Z,0.80
2017-09-13T16:37:44.519Z,0.80
2017-09-13T16:40:12.823Z,0.90
2017-09-13T16:42:41.130Z,0.80
2017-09-13T16:45:09.462Z,1.10
2017-09-13T16:47:37.789Z,1.20
2017-09-13T16:50:06.891Z,0.80
2017-09-13T16:52:35.206Z,0.70
2017-09-13T16:55:03.558Z,1.10
2017-09-13T17:00:32.401Z,0.90
2017-09-13T17:03:00.727Z,2.70
2017-09-13T17:05:29.855Z,2.40
2017-09-13T17:07:58.176Z,3.00
2017-09-13T17:10:26.510Z,2.07
2017-09-13T17:12:54.830Z,4.40
2017-09-13T17:15:23.167Z,1.80
2017-09-13T17:17:51.504Z,4.47
2017-09-13T17:20:20.630Z,2.13
2017-09-13T17:22:49.720Z,1.30
2017-09-13T17:25:18.799Z,1.60
2017-09-13T17:27:47.135Z,1.13
2017-09-13T17:30:15.452Z,1.20
2017-09-13T17:32:43.788Z,1.30
2017-09-13T17:35:12.111Z,1.33
2017-09-13T17:37:40.445Z,1.40
2017-09-13T17:40:08.763Z,0.83
2017-09-13T17:42:37.109Z,1.00
2017-09-13T17:45:05.435Z,1.30
2017-09-13T17:47:33.802Z,1.53
2017-09-13T17:50:02.919Z,1.50
2017-09-13T17:52:32.046Z,1.23
2017-09-13T17:55:03.465Z,2.93
2017-09-13T17:57:32.600Z,1.67
2017-09-13T18:00:00.911Z,1.07
2017-09-13T18:02:29.272Z,1.07
2017-09-13T18:04:57.641Z,1.60
2017-09-13T18:07:25.976Z,1.40
2017-09-13T18:09:55.114Z,1.30
2017-09-13T18:12:24.216Z,1.50
2017-09-13T18:14:52.555Z,1.00
2017-09-13T18:17:21.635Z,1.40
2017-09-13T18:19:49.987Z,1.20
2017-09-13T18:22:18.308Z,1.57
2017-09-13T18:24:50.087Z,1.20
2017-09-13T18:27:18.414Z,1.67
2017-09-13T18:29:46.772Z,1.40
2017-09-13T18:32:15.088Z,1.37
2017-09-13T18:34:43.404Z,1.50
2017-09-13T18:37:11.746Z,1.33
2017-09-13T18:39:40.847Z,1.57
2017-09-13T18:42:09.190Z,1.40
2017-09-13T18:44:37.522Z,1.13
2017-09-13T18:47:06.629Z,1.47
2017-09-13T18:49:34.953Z,1.77
2017-09-13T18:52:03.320Z,1.87
2017-09-13T18:54:31.643Z,1.40
2017-09-13T18:57:00.748Z,1.70
2017-09-13T18:59:29.912Z,1.87
2017-09-13T19:01:58.304Z,2.40
2017-09-13T19:04:26.673Z,1.50
2017-09-13T19:06:55.051Z,1.67
2017-09-13T19:09:23.460Z,2.00
2017-09-13T19:11:51.854Z,2.27
2017-09-13T19:14:20.227Z,1.40
2017-09-13T19:16:49.382Z,2.27
2017-09-13T19:19:17.765Z,2.40
2017-09-13T19:21:46.156Z,1.80
2017-09-13T19:24:14.530Z,2.33
2017-09-13T19:26:42.871Z,1.93
2017-09-13T19:29:11.243Z,2.03
2017-09-13T19:31:39.623Z,2.00
2017-09-13T19:34:07.975Z,1.90
2017-09-13T19:36:37.066Z,2.27
2017-09-13T19:39:06.197Z,3.10
2017-09-13T19:41:34.548Z,2.30
2017-09-13T19:44:02.910Z,1.90
2017-09-13T19:46:31.253Z,1.87
2017-09-13T19:48:59.608Z,2.50
2017-09-13T19:51:27.942Z,2.63
2017-09-13T19:53:56.295Z,2.57
2017-09-13T19:56:24.639Z,2.10
2017-09-13T19:58:53.015Z,2.60
2017-09-13T20:01:21.352Z,3.03
2017-09-13T20:03:49.717Z,2.07
2017-09-13T20:06:18.044Z,2.33
2017-09-13T20:08:47.168Z,1.90
2017-09-13T20:11:15.509Z,3.10
2017-09-13T20:13:44.610Z,2.27
2017-09-13T20:16:13.726Z,2.23
2017-09-13T20:18:42.047Z,1.87
2017-09-13T20:21:10.403Z,2.30
2017-09-13T20:23:38.726Z,3.10
2017-09-13T20:26:07.106Z,2.50
2017-09-13T20:28:35.456Z,2.60
2017-09-13T20:31:03.799Z,3.53
2017-09-13T20:33:32.146Z,2.63
2017-09-13T20:36:00.495Z,2.20
2017-09-13T20:38:28.843Z,2.40
2017-09-13T20:40:57.236Z,1.90
2017-09-13T20:43:25.568Z,1.57
2017-09-13T20:45:53.953Z,1.90
2017-09-13T20:48:23.040Z,1.90
2017-09-13T20:50:51.412Z,2.53
2017-09-13T20:53:19.763Z,1.70
2017-09-13T20:55:48.133Z,2.37
2017-09-13T20:58:16.483Z,2.40
2017-09-13T21:00:44.850Z,2.10
2017-09-13T21:03:13.941Z,1.90
2017-09-13T21:05:43.066Z,1.60
2017-09-13T21:08:11.405Z,1.80
2017-09-13T21:10:39.764Z,1.63
2017-09-13T21:13:08.105Z,1.40
2017-09-13T21:15:36.494Z,1.73
2017-09-13T21:18:04.841Z,2.00
2017-09-13T21:20:33.964Z,1.40
2017-09-13T21:23:02.315Z,1.60
2017-09-13T21:25:31.438Z,1.50
2017-09-13T21:27:59.776Z,1.50
2017-09-13T21:30:28.123Z,1.43
2017-09-13T21:32:56.452Z,1.20
2017-09-13T21:35:24.825Z,1.83
2017-09-13T21:37:53.924Z,1.53
2017-09-13T21:40:23.028Z,1.20
2017-09-13T21:42:52.124Z,1.23
2017-09-13T21:45:21.224Z,1.50
2017-09-13T21:47:50.304Z,1.70
2017-09-13T21:50:19.419Z,1.67
2017-09-13T21:52:47.760Z,1.40
2017-09-13T21:55:16.143Z,1.23
2017-09-13T21:57:44.479Z,1.80
2017-09-13T22:00:12.836Z,1.50
2017-09-13T22:02:41.192Z,1.60
2017-09-13T22:05:10.316Z,1.40
2017-09-13T22:07:38.672Z,1.63
2017-09-13T22:10:07.787Z,1.40
2017-09-13T22:12:36.888Z,1.60
2017-09-13T22:15:05.249Z,1.63
2017-09-13T22:17:34.334Z,1.50
2017-09-13T22:20:02.691Z,1.40
2017-09-13T22:22:31.028Z,1.83
2017-09-13T22:24:59.392Z,1.30
2017-09-13T22:27:28.512Z,1.50
2017-09-13T22:29:56.945Z,1.30
2017-09-13T22:32:25.276Z,1.40
2017-09-13T22:34:53.648Z,1.30
2017-09-13T22:37:22.604Z,1.30
2017-09-13T22:39:51.728Z,1.40
2017-09-13T22:42:20.051Z,1.47
2017-09-13T22:44:48.424Z,1.33
2017-09-13T22:47:16.748Z,1.33
2017-09-13T22:49:45.874Z,1.20
2017-09-13T22:52:14.215Z,1.20
2017-09-13T22:54:43.345Z,1.10
2017-09-13T22:57:11.679Z,0.80
2017-09-13T22:59:40.032Z,1.30
2017-09-13T23:02:08.353Z,1.20
2017-09-13T23:04:37.498Z,0.80
2017-09-13T23:07:05.871Z,0.80
2017-09-13T23:09:34.223Z,0.90
2017-09-13T23:12:02.591Z,0.70
2017-09-13T23:14:30.942Z,0.60
2017-09-13T23:16:59.307Z,0.90
2017-09-13T23:19:27.682Z,0.90
2017-09-13T23:21:56.035Z,0.57
2017-09-13T23:24:24.377Z,0.60
2017-09-13T23:26:52.726Z,0.60
2017-09-13T23:29:21.040Z,0.63
2017-09-13T23:31:49.378Z,0.60
2017-09-13T23:34:17.719Z,0.60
2017-09-13T23:36:46.082Z,0.60
2017-09-13T23:39:15.178Z,0.60
2017-09-13T23:41:44.316Z,0.80
2017-09-13T23:44:12.679Z,0.60
2017-09-13T23:46:41.068Z,0.60
2017-09-13T23:49:09.424Z,0.60
2017-09-13T23:51:37.789Z,0.70
2017-09-13T23:54:06.136Z,0.53
2017-09-13T23:56:34.482Z,0.60
2017-09-13T23:59:02.853Z,0.60
